Angora, NE (69331)

2:09 AM MDT on September 02, 2015 (GMT -0600)
Bridgeport Ampride | | Change Station
CLOSE
Current Station
Personal Weather Station
Location: Bridgeport, NE
Elevation: 3671 ft
Nearby Weather Stations

Elev 3671 ft 41.67 °N, 103.10 °W | Updated 3 minutes ago

Clear
Clear
65.9 °F
Feels Like 65.9 °F
N
0.0
Wind Variable Wind from ESE
Gusts 4.0 mph

Today
High -- | Low -- °F
--% Chance of Precip.
Yesterday
High -- | Low -- °F
Precip. -- in
6:18 AM 7:24 PM
Waning Gibbous, 82% visible
Pressure 29.79 in
Visibility 10.0 miles
Clouds Clear
Dew Point 45 °F
Humidity 48%
Rainfall 0.00 in
Snow Depth Not available.
UV 0 out of 12
Pollen 9.80 out of 12
Air Quality Not available.
Flu Activity Not available.
METAR KAIA 020753Z AUTO 18008KT 10SM CLR 16/09 A2993 RMK AO2 SLP087 T01560094
Pressure 29.79 in
Visibility 10.0 miles
Clouds Clear
Dew Point 45 °F
Humidity 48%
Rainfall 0.00 in
Snow Depth Not available.
UV 0 out of 12
Pollen 9.80 out of 12
Air Quality Not available.
Flu Activity Not available.
METAR KAIA 020753Z AUTO 18008KT 10SM CLR 16/09 A2993 RMK AO2 SLP087 T01560094

10-Day Weather Forecast

×

Almanac

Astronomy

Sep. 02, 2015 Rise Set
Actual Time
Civil Twilight
Nautical Twilight
Astronomical Twilight
Moon
Length of Visible Light
Length of Day
Tomorrow will be .
, % of the Moon is Illuminated

Today's Extremes

State Highs State Lows

Community

WunderPhotos

Upload Photos

1,851,727 photos uploaded!

WunderBlogs® & News

Nearby

Air Quality

  Air Quality AQ Index Pollutant
Not available.

Snow Depth

Station Depth Elevation

Earthquake Activity

City Distance Mag. Time & Date
Minimum magnitude displayed is 2.5.

Coastal Water Temperatures

Place Temperature

Stations

Nearby Weather Stations

Station Location Temp. Windchill Dew Point Humidity Wind Precip. Elev Updated Type